sensor_id;sensor_type;location;lat;lon;timestamp;P1;durP1;ratioP1;P2;durP2;ratioP2
64052;SDS011;50299;49.524;8.536;2022-10-13T00:00:54;172.73;;;28.60;;
64052;SDS011;50299;49.524;8.536;2022-10-13T00:03:20;18.42;;;12.63;;
64052;SDS011;50299;49.524;8.536;2022-10-13T00:05:47;20.25;;;13.20;;
64052;SDS011;50299;49.524;8.536;2022-10-13T00:08:16;92.07;;;20.42;;
64052;SDS011;50299;49.524;8.536;2022-10-13T00:10:46;271.23;;;45.20;;
64052;SDS011;50299;49.524;8.536;2022-10-13T00:13:14;449.33;;;69.55;;
64052;SDS011;50299;49.524;8.536;2022-10-13T00:15:42;29.98;;;15.82;;
64052;SDS011;50299;49.524;8.536;2022-10-13T00:18:10;29.55;;;16.60;;
64052;SDS011;50299;49.524;8.536;2022-10-13T00:20:44;48.92;;;18.23;;
64052;SDS011;50299;49.524;8.536;2022-10-13T00:23:12;26.20;;;14.45;;
64052;SDS011;50299;49.524;8.536;2022-10-13T00:25:42;31.55;;;15.77;;
64052;SDS011;50299;49.524;8.536;2022-10-13T00:28:11;21.85;;;15.40;;
64052;SDS011;50299;49.524;8.536;2022-10-13T00:30:37;38.95;;;16.48;;
64052;SDS011;50299;49.524;8.536;2022-10-13T00:33:04;16.67;;;12.73;;
64052;SDS011;50299;49.524;8.536;2022-10-13T00:35:31;17.05;;;11.43;;
64052;SDS011;50299;49.524;8.536;2022-10-13T00:37:58;15.10;;;11.15;;
64052;SDS011;50299;49.524;8.536;2022-10-13T00:40:25;17.88;;;12.48;;
64052;SDS011;50299;49.524;8.536;2022-10-13T00:42:52;116.15;;;22.45;;
64052;SDS011;50299;49.524;8.536;2022-10-13T00:47:54;14.77;;;11.30;;
64052;SDS011;50299;49.524;8.536;2022-10-13T00:50:24;16.83;;;11.98;;
64052;SDS011;50299;49.524;8.536;2022-10-13T00:52:55;21.33;;;11.77;;
64052;SDS011;50299;49.524;8.536;2022-10-13T00:55:25;18.85;;;11.95;;
64052;SDS011;50299;49.524;8.536;2022-10-13T00:57:55;18.30;;;12.55;;
64052;SDS011;50299;49.524;8.536;2022-10-13T01:00:30;21.50;;;14.32;;
64052;SDS011;50299;49.524;8.536;2022-10-13T01:03:01;20.05;;;13.85;;
64052;SDS011;50299;49.524;8.536;2022-10-13T01:05:28;20.08;;;13.82;;
64052;SDS011;50299;49.524;8.536;2022-10-13T01:07:56;461.42;;;64.95;;
64052;SDS011;50299;49.524;8.536;2022-10-13T01:10:35;38.92;;;15.50;;
64052;SDS011;50299;49.524;8.536;2022-10-13T01:16:01;16.08;;;13.05;;
64052;SDS011;50299;49.524;8.536;2022-10-13T01:24:39;18.45;;;12.68;;
64052;SDS011;50299;49.524;8.536;2022-10-13T01:27:12;19.30;;;12.35;;
64052;SDS011;50299;49.524;8.536;2022-10-13T01:30:04;20.85;;;12.32;;
64052;SDS011;50299;49.524;8.536;2022-10-13T01:32:41;22.67;;;13.73;;
64052;SDS011;50299;49.524;8.536;2022-10-13T01:35:22;21.83;;;13.75;;
64052;SDS011;50299;49.524;8.536;2022-10-13T01:41:10;21.50;;;14.82;;
64052;SDS011;50299;49.524;8.536;2022-10-13T01:43:44;20.05;;;14.07;;
64052;SDS011;50299;49.524;8.536;2022-10-13T01:46:17;25.05;;;16.67;;
64052;SDS011;50299;49.524;8.536;2022-10-13T01:48:48;22.70;;;14.95;;
64052;SDS011;50299;49.524;8.536;2022-10-13T01:51:17;22.00;;;15.52;;
64052;SDS011;50299;49.524;8.536;2022-10-13T01:53:47;24.80;;;14.98;;
64052;SDS011;50299;49.524;8.536;2022-10-13T01:56:15;77.28;;;20.90;;
64052;SDS011;50299;49.524;8.536;2022-10-13T01:58:41;34.83;;;17.50;;
64052;SDS011;50299;49.524;8.536;2022-10-13T02:01:21;19.98;;;13.25;;
64052;SDS011;50299;49.524;8.536;2022-10-13T02:06:49;17.02;;;13.50;;
64052;SDS011;50299;49.524;8.536;2022-10-13T02:12:19;13.52;;;11.20;;
64052;SDS011;50299;49.524;8.536;2022-10-13T02:14:53;14.35;;;11.90;;
64052;SDS011;50299;49.524;8.536;2022-10-13T02:17:30;14.25;;;11.90;;
64052;SDS011;50299;49.524;8.536;2022-10-13T02:19:56;17.98;;;12.43;;
64052;SDS011;50299;49.524;8.536;2022-10-13T02:22:25;18.48;;;13.23;;
64052;SDS011;50299;49.524;8.536;2022-10-13T02:24:56;16.05;;;11.63;;
64052;SDS011;50299;49.524;8.536;2022-10-13T02:27:22;21.33;;;13.80;;
64052;SDS011;50299;49.524;8.536;2022-10-13T02:29:55;21.70;;;13.48;;
64052;SDS011;50299;49.524;8.536;2022-10-13T02:32:22;18.83;;;14.45;;
64052;SDS011;50299;49.524;8.536;2022-10-13T02:34:49;21.48;;;13.48;;
64052;SDS011;50299;49.524;8.536;2022-10-13T02:37:23;18.08;;;14.15;;
64052;SDS011;50299;49.524;8.536;2022-10-13T02:39:52;20.45;;;14.45;;
64052;SDS011;50299;49.524;8.536;2022-10-13T02:42:18;31.90;;;14.15;;
64052;SDS011;50299;49.524;8.536;2022-10-13T02:44:45;18.15;;;11.98;;
64052;SDS011;50299;49.524;8.536;2022-10-13T02:47:11;36.42;;;13.63;;
64052;SDS011;50299;49.524;8.536;2022-10-13T02:49:38;111.57;;;20.30;;
64052;SDS011;50299;49.524;8.536;2022-10-13T02:52:04;62.03;;;17.67;;
64052;SDS011;50299;49.524;8.536;2022-10-13T02:54:30;81.20;;;21.33;;
64052;SDS011;50299;49.524;8.536;2022-10-13T02:56:57;37.00;;;16.58;;
64052;SDS011;50299;49.524;8.536;2022-10-13T02:59:23;229.20;;;35.78;;
64052;SDS011;50299;49.524;8.536;2022-10-13T03:01:50;30.00;;;16.83;;
64052;SDS011;50299;49.524;8.536;2022-10-13T03:04:16;118.03;;;23.15;;
64052;SDS011;50299;49.524;8.536;2022-10-13T03:06:42;138.43;;;30.15;;
64052;SDS011;50299;49.524;8.536;2022-10-13T03:09:09;199.43;;;33.00;;
64052;SDS011;50299;49.524;8.536;2022-10-13T03:11:35;391.33;;;47.15;;
64052;SDS011;50299;49.524;8.536;2022-10-13T03:14:08;207.75;;;38.72;;
64052;SDS011;50299;49.524;8.536;2022-10-13T03:16:34;171.30;;;34.58;;
64052;SDS011;50299;49.524;8.536;2022-10-13T03:19:00;30.65;;;18.05;;
64052;SDS011;50299;49.524;8.536;2022-10-13T03:21:27;61.58;;;21.98;;
64052;SDS011;50299;49.524;8.536;2022-10-13T03:23:53;31.50;;;17.65;;
64052;SDS011;50299;49.524;8.536;2022-10-13T03:26:20;37.17;;;17.90;;
64052;SDS011;50299;49.524;8.536;2022-10-13T03:28:47;51.53;;;19.05;;
64052;SDS011;50299;49.524;8.536;2022-10-13T03:31:15;29.48;;;16.63;;
64052;SDS011;50299;49.524;8.536;2022-10-13T03:33:43;29.63;;;19.20;;
64052;SDS011;50299;49.524;8.536;2022-10-13T03:36:10;58.67;;;20.35;;
64052;SDS011;50299;49.524;8.536;2022-10-13T03:38:38;145.10;;;31.40;;
64052;SDS011;50299;49.524;8.536;2022-10-13T03:41:05;47.78;;;18.58;;
64052;SDS011;50299;49.524;8.536;2022-10-13T03:43:33;77.13;;;23.77;;
64052;SDS011;50299;49.524;8.536;2022-10-13T03:46:01;69.32;;;21.33;;
64052;SDS011;50299;49.524;8.536;2022-10-13T03:48:29;75.82;;;20.67;;
64052;SDS011;50299;49.524;8.536;2022-10-13T03:50:55;48.15;;;19.17;;
64052;SDS011;50299;49.524;8.536;2022-10-13T03:53:23;110.05;;;24.83;;
64052;SDS011;50299;49.524;8.536;2022-10-13T03:55:54;395.27;;;57.72;;
64052;SDS011;50299;49.524;8.536;2022-10-13T03:58:22;471.20;;;72.55;;
64052;SDS011;50299;49.524;8.536;2022-10-13T04:00:50;520.58;;;79.05;;
64052;SDS011;50299;49.524;8.536;2022-10-13T04:03:17;397.20;;;65.13;;
64052;SDS011;50299;49.524;8.536;2022-10-13T04:05:46;94.32;;;24.23;;
64052;SDS011;50299;49.524;8.536;2022-10-13T04:08:12;133.15;;;26.13;;
64052;SDS011;50299;49.524;8.536;2022-10-13T04:10:39;110.28;;;23.98;;
64052;SDS011;50299;49.524;8.536;2022-10-13T04:13:06;70.85;;;18.88;;
64052;SDS011;50299;49.524;8.536;2022-10-13T04:15:36;217.93;;;36.45;;
64052;SDS011;50299;49.524;8.536;2022-10-13T04:18:04;222.13;;;33.05;;
64052;SDS011;50299;49.524;8.536;2022-10-13T04:20:34;68.85;;;19.83;;
64052;SDS011;50299;49.524;8.536;2022-10-13T04:23:02;397.63;;;56.40;;
64052;SDS011;50299;49.524;8.536;2022-10-13T04:25:28;983.58;;;106.57;;
64052;SDS011;50299;49.524;8.536;2022-10-13T04:27:54;938.92;;;118.82;;
64052;SDS011;50299;49.524;8.536;2022-10-13T04:30:23;219.32;;;40.92;;
64052;SDS011;50299;49.524;8.536;2022-10-13T04:32:52;127.50;;;26.58;;
64052;SDS011;50299;49.524;8.536;2022-10-13T04:35:19;74.18;;;19.77;;
64052;SDS011;50299;49.524;8.536;2022-10-13T04:37:45;369.23;;;54.40;;
64052;SDS011;50299;49.524;8.536;2022-10-13T04:40:12;395.73;;;54.42;;
64052;SDS011;50299;49.524;8.536;2022-10-13T04:42:38;61.63;;;17.80;;
64052;SDS011;50299;49.524;8.536;2022-10-13T04:45:04;83.60;;;20.85;;
64052;SDS011;50299;49.524;8.536;2022-10-13T04:47:32;497.13;;;68.45;;
64052;SDS011;50299;49.524;8.536;2022-10-13T04:50:02;79.35;;;19.58;;
64052;SDS011;50299;49.524;8.536;2022-10-13T04:52:29;145.13;;;27.20;;
64052;SDS011;50299;49.524;8.536;2022-10-13T04:54:55;114.25;;;25.83;;
64052;SDS011;50299;49.524;8.536;2022-10-13T04:57:21;225.98;;;37.67;;
64052;SDS011;50299;49.524;8.536;2022-10-13T04:59:48;440.80;;;59.42;;
64052;SDS011;50299;49.524;8.536;2022-10-13T05:02:14;258.25;;;44.42;;
64052;SDS011;50299;49.524;8.536;2022-10-13T05:04:40;105.50;;;22.83;;
64052;SDS011;50299;49.524;8.536;2022-10-13T05:07:07;284.10;;;39.13;;
64052;SDS011;50299;49.524;8.536;2022-10-13T05:09:49;173.70;;;31.23;;
64052;SDS011;50299;49.524;8.536;2022-10-13T05:12:16;736.25;;;90.07;;
64052;SDS011;50299;49.524;8.536;2022-10-13T05:14:42;106.35;;;23.83;;
64052;SDS011;50299;49.524;8.536;2022-10-13T05:17:09;78.25;;;22.17;;
64052;SDS011;50299;49.524;8.536;2022-10-13T05:19:35;93.82;;;23.45;;
64052;SDS011;50299;49.524;8.536;2022-10-13T05:22:02;110.10;;;24.70;;
64052;SDS011;50299;49.524;8.536;2022-10-13T05:24:31;420.17;;;61.28;;
64052;SDS011;50299;49.524;8.536;2022-10-13T05:27:10;108.20;;;24.80;;
64052;SDS011;50299;49.524;8.536;2022-10-13T05:29:38;238.13;;;44.47;;
64052;SDS011;50299;49.524;8.536;2022-10-13T05:32:05;131.90;;;28.15;;
64052;SDS011;50299;49.524;8.536;2022-10-13T05:34:32;192.07;;;34.63;;
64052;SDS011;50299;49.524;8.536;2022-10-13T05:36:59;214.43;;;35.65;;
64052;SDS011;50299;49.524;8.536;2022-10-13T05:39:26;230.88;;;39.83;;
64052;SDS011;50299;49.524;8.536;2022-10-13T05:41:52;145.32;;;27.05;;
64052;SDS011;50299;49.524;8.536;2022-10-13T05:44:18;92.95;;;23.40;;
64052;SDS011;50299;49.524;8.536;2022-10-13T05:46:46;167.63;;;28.02;;
64052;SDS011;50299;49.524;8.536;2022-10-13T05:49:19;278.75;;;40.30;;
64052;SDS011;50299;49.524;8.536;2022-10-13T05:51:46;111.25;;;23.50;;
64052;SDS011;50299;49.524;8.536;2022-10-13T05:54:20;122.07;;;25.38;;
64052;SDS011;50299;49.524;8.536;2022-10-13T05:56:56;591.33;;;74.80;;
64052;SDS011;50299;49.524;8.536;2022-10-13T05:59:31;161.52;;;27.45;;
64052;SDS011;50299;49.524;8.536;2022-10-13T06:02:04;124.28;;;26.15;;
64052;SDS011;50299;49.524;8.536;2022-10-13T06:04:38;241.18;;;39.47;;
64052;SDS011;50299;49.524;8.536;2022-10-13T06:07:09;112.70;;;26.23;;
64052;SDS011;50299;49.524;8.536;2022-10-13T06:09:37;64.15;;;21.80;;
64052;SDS011;50299;49.524;8.536;2022-10-13T06:12:05;69.13;;;21.65;;
64052;SDS011;50299;49.524;8.536;2022-10-13T06:14:32;79.45;;;21.75;;
64052;SDS011;50299;49.524;8.536;2022-10-13T06:16:59;65.18;;;21.80;;
64052;SDS011;50299;49.524;8.536;2022-10-13T06:19:26;104.80;;;25.52;;
64052;SDS011;50299;49.524;8.536;2022-10-13T06:21:52;104.95;;;27.15;;
64052;SDS011;50299;49.524;8.536;2022-10-13T06:24:19;72.03;;;21.13;;
64052;SDS011;50299;49.524;8.536;2022-10-13T06:26:45;127.07;;;26.95;;
64052;SDS011;50299;49.524;8.536;2022-10-13T06:29:18;341.70;;;45.95;;
64052;SDS011;50299;49.524;8.536;2022-10-13T06:31:51;654.85;;;69.03;;
64052;SDS011;50299;49.524;8.536;2022-10-13T06:34:17;260.88;;;39.10;;
64052;SDS011;50299;49.524;8.536;2022-10-13T06:36:44;72.60;;;22.10;;
64052;SDS011;50299;49.524;8.536;2022-10-13T06:39:10;163.13;;;31.73;;
64052;SDS011;50299;49.524;8.536;2022-10-13T06:41:37;952.33;;;110.72;;
64052;SDS011;50299;49.524;8.536;2022-10-13T06:44:03;680.10;;;81.72;;
64052;SDS011;50299;49.524;8.536;2022-10-13T06:46:30;638.35;;;86.93;;
64052;SDS011;50299;49.524;8.536;2022-10-13T06:48:56;322.33;;;50.67;;
64052;SDS011;50299;49.524;8.536;2022-10-13T06:51:23;376.08;;;54.97;;
64052;SDS011;50299;49.524;8.536;2022-10-13T06:53:49;574.95;;;82.15;;
64052;SDS011;50299;49.524;8.536;2022-10-13T06:56:16;346.30;;;53.97;;
64052;SDS011;50299;49.524;8.536;2022-10-13T06:58:48;266.08;;;49.88;;
64052;SDS011;50299;49.524;8.536;2022-10-13T07:01:28;66.68;;;28.17;;
64052;SDS011;50299;49.524;8.536;2022-10-13T07:03:55;56.65;;;26.63;;
64052;SDS011;50299;49.524;8.536;2022-10-13T07:06:21;43.40;;;24.17;;
64052;SDS011;50299;49.524;8.536;2022-10-13T07:08:48;42.92;;;24.55;;
64052;SDS011;50299;49.524;8.536;2022-10-13T07:11:15;42.83;;;25.40;;
64052;SDS011;50299;49.524;8.536;2022-10-13T07:13:42;43.85;;;23.02;;
64052;SDS011;50299;49.524;8.536;2022-10-13T07:16:12;52.25;;;24.65;;
64052;SDS011;50299;49.524;8.536;2022-10-13T07:18:39;39.92;;;23.88;;
64052;SDS011;50299;49.524;8.536;2022-10-13T07:21:06;58.63;;;26.17;;
64052;SDS011;50299;49.524;8.536;2022-10-13T07:23:32;156.75;;;27.95;;
64052;SDS011;50299;49.524;8.536;2022-10-13T07:25:59;192.15;;;33.15;;
64052;SDS011;50299;49.524;8.536;2022-10-13T07:28:26;698.25;;;64.70;;
64052;SDS011;50299;49.524;8.536;2022-10-13T07:30:53;260.92;;;37.03;;
64052;SDS011;50299;49.524;8.536;2022-10-13T07:33:20;488.98;;;47.92;;
64052;SDS011;50299;49.524;8.536;2022-10-13T07:35:46;159.35;;;28.60;;
64052;SDS011;50299;49.524;8.536;2022-10-13T07:38:13;152.52;;;29.10;;
64052;SDS011;50299;49.524;8.536;2022-10-13T07:40:40;140.43;;;29.20;;
64052;SDS011;50299;49.524;8.536;2022-10-13T07:43:06;55.67;;;22.33;;
64052;SDS011;50299;49.524;8.536;2022-10-13T07:45:32;45.08;;;21.77;;
64052;SDS011;50299;49.524;8.536;2022-10-13T07:47:59;38.15;;;20.90;;
64052;SDS011;50299;49.524;8.536;2022-10-13T07:50:25;288.38;;;41.72;;
64052;SDS011;50299;49.524;8.536;2022-10-13T07:52:51;41.80;;;20.77;;
64052;SDS011;50299;49.524;8.536;2022-10-13T07:55:18;34.17;;;18.90;;
64052;SDS011;50299;49.524;8.536;2022-10-13T07:57:47;31.38;;;20.77;;
64052;SDS011;50299;49.524;8.536;2022-10-13T08:00:13;30.73;;;19.67;;
64052;SDS011;50299;49.524;8.536;2022-10-13T08:02:40;33.95;;;19.50;;
64052;SDS011;50299;49.524;8.536;2022-10-13T08:05:06;32.65;;;20.27;;
64052;SDS011;50299;49.524;8.536;2022-10-13T08:07:33;28.52;;;18.67;;
64052;SDS011;50299;49.524;8.536;2022-10-13T08:10:00;34.83;;;21.88;;
64052;SDS011;50299;49.524;8.536;2022-10-13T08:12:27;28.38;;;20.88;;
64052;SDS011;50299;49.524;8.536;2022-10-13T08:14:53;33.88;;;22.30;;
64052;SDS011;50299;49.524;8.536;2022-10-13T08:17:19;35.13;;;22.08;;
64052;SDS011;50299;49.524;8.536;2022-10-13T08:19:49;27.75;;;17.42;;
64052;SDS011;50299;49.524;8.536;2022-10-13T08:22:15;30.20;;;18.52;;
64052;SDS011;50299;49.524;8.536;2022-10-13T08:24:42;25.85;;;17.92;;
64052;SDS011;50299;49.524;8.536;2022-10-13T08:27:10;23.52;;;18.75;;
64052;SDS011;50299;49.524;8.536;2022-10-13T08:29:41;22.30;;;18.48;;
64052;SDS011;50299;49.524;8.536;2022-10-13T08:32:08;27.02;;;15.82;;
64052;SDS011;50299;49.524;8.536;2022-10-13T08:34:35;20.48;;;16.00;;
64052;SDS011;50299;49.524;8.536;2022-10-13T08:37:02;19.92;;;15.15;;
64052;SDS011;50299;49.524;8.536;2022-10-13T08:39:29;22.70;;;16.15;;
64052;SDS011;50299;49.524;8.536;2022-10-13T08:41:56;21.95;;;15.40;;
64052;SDS011;50299;49.524;8.536;2022-10-13T08:44:33;23.25;;;15.38;;
64052;SDS011;50299;49.524;8.536;2022-10-13T08:47:29;22.90;;;16.60;;
64052;SDS011;50299;49.524;8.536;2022-10-13T08:49:59;19.77;;;14.38;;
64052;SDS011;50299;49.524;8.536;2022-10-13T08:52:41;20.75;;;15.30;;
64052;SDS011;50299;49.524;8.536;2022-10-13T08:55:20;22.83;;;15.77;;
64052;SDS011;50299;49.524;8.536;2022-10-13T08:57:50;26.33;;;16.63;;
64052;SDS011;50299;49.524;8.536;2022-10-13T09:00:17;25.48;;;16.55;;
64052;SDS011;50299;49.524;8.536;2022-10-13T09:02:44;21.05;;;16.05;;
64052;SDS011;50299;49.524;8.536;2022-10-13T09:05:17;25.27;;;16.58;;
64052;SDS011;50299;49.524;8.536;2022-10-13T09:08:04;22.52;;;16.23;;
64052;SDS011;50299;49.524;8.536;2022-10-13T09:10:47;26.13;;;15.35;;
64052;SDS011;50299;49.524;8.536;2022-10-13T09:13:14;206.98;;;28.08;;
64052;SDS011;50299;49.524;8.536;2022-10-13T09:15:41;40.50;;;16.63;;
64052;SDS011;50299;49.524;8.536;2022-10-13T09:18:12;24.10;;;15.20;;
64052;SDS011;50299;49.524;8.536;2022-10-13T09:20:39;26.17;;;16.25;;
64052;SDS011;50299;49.524;8.536;2022-10-13T09:23:19;35.42;;;15.25;;
64052;SDS011;50299;49.524;8.536;2022-10-13T09:25:48;29.50;;;15.32;;
64052;SDS011;50299;49.524;8.536;2022-10-13T09:28:26;26.35;;;17.60;;
64052;SDS011;50299;49.524;8.536;2022-10-13T09:31:18;173.50;;;25.08;;
64052;SDS011;50299;49.524;8.536;2022-10-13T09:33:56;751.10;;;59.13;;
64052;SDS011;50299;49.524;8.536;2022-10-13T09:36:28;1225.38;;;120.93;;
64052;SDS011;50299;49.524;8.536;2022-10-13T09:39:05;159.80;;;24.75;;
64052;SDS011;50299;49.524;8.536;2022-10-13T09:41:42;465.13;;;46.22;;
64052;SDS011;50299;49.524;8.536;2022-10-13T09:44:16;331.58;;;35.40;;
64052;SDS011;50299;49.524;8.536;2022-10-13T09:46:56;32.45;;;18.33;;
64052;SDS011;50299;49.524;8.536;2022-10-13T09:49:32;42.70;;;18.98;;
64052;SDS011;50299;49.524;8.536;2022-10-13T09:57:21;26.77;;;15.90;;
64052;SDS011;50299;49.524;8.536;2022-10-13T10:00:03;21.88;;;15.75;;
64052;SDS011;50299;49.524;8.536;2022-10-13T10:02:38;42.92;;;16.50;;
64052;SDS011;50299;49.524;8.536;2022-10-13T10:05:23;33.08;;;16.83;;
64052;SDS011;50299;49.524;8.536;2022-10-13T10:08:01;22.88;;;16.13;;
64052;SDS011;50299;49.524;8.536;2022-10-13T10:10:38;31.05;;;17.38;;
64052;SDS011;50299;49.524;8.536;2022-10-13T10:13:08;26.80;;;18.30;;
64052;SDS011;50299;49.524;8.536;2022-10-13T10:15:42;441.75;;;41.83;;
64052;SDS011;50299;49.524;8.536;2022-10-13T10:21:22;471.27;;;53.63;;
64052;SDS011;50299;49.524;8.536;2022-10-13T10:24:07;1076.57;;;87.38;;
64052;SDS011;50299;49.524;8.536;2022-10-13T10:27:00;1316.45;;;132.45;;
64052;SDS011;50299;49.524;8.536;2022-10-13T10:29:45;1817.60;;;162.98;;
64052;SDS011;50299;49.524;8.536;2022-10-13T10:32:36;251.05;;;30.77;;
64052;SDS011;50299;49.524;8.536;2022-10-13T10:38:11;148.40;;;22.73;;
64052;SDS011;50299;49.524;8.536;2022-10-13T10:41:01;25.20;;;17.05;;
64052;SDS011;50299;49.524;8.536;2022-10-13T10:43:40;27.67;;;18.48;;
64052;SDS011;50299;49.524;8.536;2022-10-13T10:46:15;90.82;;;21.35;;
64052;SDS011;50299;49.524;8.536;2022-10-13T10:48:52;26.45;;;17.33;;
64052;SDS011;50299;49.524;8.536;2022-10-13T10:51:22;66.53;;;20.38;;
64052;SDS011;50299;49.524;8.536;2022-10-13T10:54:18;135.65;;;24.52;;
64052;SDS011;50299;49.524;8.536;2022-10-13T11:00:08;145.93;;;28.17;;
64052;SDS011;50299;49.524;8.536;2022-10-13T11:06:04;25.45;;;15.93;;
64052;SDS011;50299;49.524;8.536;2022-10-13T11:08:46;25.70;;;16.67;;
64052;SDS011;50299;49.524;8.536;2022-10-13T11:13:59;25.08;;;19.13;;
64052;SDS011;50299;49.524;8.536;2022-10-13T11:17:09;23.60;;;15.80;;
64052;SDS011;50299;49.524;8.536;2022-10-13T11:19:44;25.50;;;16.30;;
64052;SDS011;50299;49.524;8.536;2022-10-13T11:22:16;23.83;;;18.25;;
64052;SDS011;50299;49.524;8.536;2022-10-13T11:24:55;24.83;;;16.75;;
64052;SDS011;50299;49.524;8.536;2022-10-13T11:27:24;22.33;;;16.75;;
64052;SDS011;50299;49.524;8.536;2022-10-13T11:29:54;19.83;;;14.95;;
64052;SDS011;50299;49.524;8.536;2022-10-13T11:34:59;19.58;;;16.13;;
64052;SDS011;50299;49.524;8.536;2022-10-13T11:37:44;23.15;;;16.27;;
64052;SDS011;50299;49.524;8.536;2022-10-13T11:43:14;19.58;;;15.85;;
64052;SDS011;50299;49.524;8.536;2022-10-13T11:51:30;20.73;;;15.90;;
64052;SDS011;50299;49.524;8.536;2022-10-13T11:56:48;20.52;;;17.05;;
64052;SDS011;50299;49.524;8.536;2022-10-13T12:01:54;32.45;;;16.20;;
64052;SDS011;50299;49.524;8.536;2022-10-13T12:04:24;29.25;;;15.95;;
64052;SDS011;50299;49.524;8.536;2022-10-13T12:06:53;20.98;;;15.15;;
64052;SDS011;50299;49.524;8.536;2022-10-13T12:09:23;24.35;;;16.08;;
64052;SDS011;50299;49.524;8.536;2022-10-13T12:12:00;22.05;;;16.55;;
64052;SDS011;50299;49.524;8.536;2022-10-13T12:14:42;22.58;;;16.77;;
64052;SDS011;50299;49.524;8.536;2022-10-13T12:17:22;20.05;;;16.42;;
64052;SDS011;50299;49.524;8.536;2022-10-13T12:20:02;23.55;;;15.63;;
64052;SDS011;50299;49.524;8.536;2022-10-13T12:22:48;23.45;;;16.90;;
64052;SDS011;50299;49.524;8.536;2022-10-13T12:25:15;24.42;;;15.88;;
64052;SDS011;50299;49.524;8.536;2022-10-13T12:27:46;20.35;;;16.58;;
64052;SDS011;50299;49.524;8.536;2022-10-13T12:32:53;22.10;;;17.40;;
64052;SDS011;50299;49.524;8.536;2022-10-13T12:35:22;24.83;;;18.35;;
64052;SDS011;50299;49.524;8.536;2022-10-13T12:38:00;26.10;;;17.80;;
64052;SDS011;50299;49.524;8.536;2022-10-13T12:40:31;21.88;;;16.98;;
64052;SDS011;50299;49.524;8.536;2022-10-13T12:42:58;20.23;;;17.48;;
64052;SDS011;50299;49.524;8.536;2022-10-13T12:45:26;19.70;;;16.67;;
64052;SDS011;50299;49.524;8.536;2022-10-13T12:47:57;22.02;;;17.02;;
64052;SDS011;50299;49.524;8.536;2022-10-13T12:52:50;24.90;;;17.02;;
64052;SDS011;50299;49.524;8.536;2022-10-13T12:55:19;20.63;;;17.95;;
64052;SDS011;50299;49.524;8.536;2022-10-13T13:02:57;20.85;;;17.50;;
64052;SDS011;50299;49.524;8.536;2022-10-13T13:07:59;32.75;;;16.80;;
64052;SDS011;50299;49.524;8.536;2022-10-13T13:10:27;20.30;;;15.25;;
64052;SDS011;50299;49.524;8.536;2022-10-13T13:12:53;17.45;;;14.27;;
64052;SDS011;50299;49.524;8.536;2022-10-13T13:17:50;20.58;;;16.15;;
64052;SDS011;50299;49.524;8.536;2022-10-13T13:20:31;23.27;;;14.85;;
64052;SDS011;50299;49.524;8.536;2022-10-13T13:22:59;21.67;;;15.57;;
64052;SDS011;50299;49.524;8.536;2022-10-13T13:25:26;21.58;;;14.57;;
64052;SDS011;50299;49.524;8.536;2022-10-13T13:27:52;21.98;;;15.63;;
64052;SDS011;50299;49.524;8.536;2022-10-13T13:30:20;19.17;;;16.25;;
64052;SDS011;50299;49.524;8.536;2022-10-13T13:32:48;19.80;;;15.02;;
64052;SDS011;50299;49.524;8.536;2022-10-13T13:35:16;21.38;;;16.50;;
64052;SDS011;50299;49.524;8.536;2022-10-13T13:37:49;21.73;;;17.25;;
64052;SDS011;50299;49.524;8.536;2022-10-13T13:40:21;19.83;;;16.30;;
64052;SDS011;50299;49.524;8.536;2022-10-13T13:42:49;25.13;;;17.95;;
64052;SDS011;50299;49.524;8.536;2022-10-13T13:45:16;27.15;;;18.67;;
64052;SDS011;50299;49.524;8.536;2022-10-13T13:47:45;26.90;;;17.52;;
64052;SDS011;50299;49.524;8.536;2022-10-13T13:50:22;21.67;;;17.85;;
64052;SDS011;50299;49.524;8.536;2022-10-13T13:52:50;22.98;;;17.38;;
64052;SDS011;50299;49.524;8.536;2022-10-13T13:55:16;24.92;;;16.27;;
64052;SDS011;50299;49.524;8.536;2022-10-13T13:57:43;30.63;;;17.25;;
64052;SDS011;50299;49.524;8.536;2022-10-13T14:00:14;23.48;;;16.27;;
64052;SDS011;50299;49.524;8.536;2022-10-13T14:02:42;22.15;;;15.48;;
64052;SDS011;50299;49.524;8.536;2022-10-13T14:05:09;21.25;;;15.73;;
64052;SDS011;50299;49.524;8.536;2022-10-13T14:07:37;21.58;;;16.20;;
64052;SDS011;50299;49.524;8.536;2022-10-13T14:10:04;22.42;;;15.50;;
64052;SDS011;50299;49.524;8.536;2022-10-13T14:12:32;21.02;;;15.35;;
64052;SDS011;50299;49.524;8.536;2022-10-13T14:14:59;20.90;;;15.65;;
64052;SDS011;50299;49.524;8.536;2022-10-13T14:17:25;20.42;;;15.88;;
64052;SDS011;50299;49.524;8.536;2022-10-13T14:19:53;21.83;;;16.70;;
64052;SDS011;50299;49.524;8.536;2022-10-13T14:22:20;21.70;;;15.70;;
64052;SDS011;50299;49.524;8.536;2022-10-13T14:24:52;25.45;;;16.80;;
64052;SDS011;50299;49.524;8.536;2022-10-13T14:27:19;22.55;;;17.23;;
64052;SDS011;50299;49.524;8.536;2022-10-13T14:29:45;24.85;;;16.77;;
64052;SDS011;50299;49.524;8.536;2022-10-13T14:32:12;29.90;;;17.42;;
64052;SDS011;50299;49.524;8.536;2022-10-13T14:34:38;26.55;;;15.68;;
64052;SDS011;50299;49.524;8.536;2022-10-13T14:37:05;23.65;;;17.50;;
64052;SDS011;50299;49.524;8.536;2022-10-13T14:39:31;22.52;;;16.50;;
64052;SDS011;50299;49.524;8.536;2022-10-13T14:41:58;24.73;;;16.52;;
64052;SDS011;50299;49.524;8.536;2022-10-13T14:44:24;22.15;;;17.50;;
64052;SDS011;50299;49.524;8.536;2022-10-13T14:46:50;22.27;;;16.35;;
64052;SDS011;50299;49.524;8.536;2022-10-13T14:49:17;28.85;;;16.45;;
64052;SDS011;50299;49.524;8.536;2022-10-13T14:51:43;23.95;;;16.67;;
64052;SDS011;50299;49.524;8.536;2022-10-13T14:54:09;23.77;;;16.70;;
64052;SDS011;50299;49.524;8.536;2022-10-13T14:56:36;21.40;;;15.52;;
64052;SDS011;50299;49.524;8.536;2022-10-13T14:59:04;22.73;;;17.60;;
64052;SDS011;50299;49.524;8.536;2022-10-13T15:01:32;23.48;;;17.05;;
64052;SDS011;50299;49.524;8.536;2022-10-13T15:03:59;26.90;;;18.08;;
64052;SDS011;50299;49.524;8.536;2022-10-13T15:06:26;20.50;;;16.73;;
64052;SDS011;50299;49.524;8.536;2022-10-13T15:08:53;23.92;;;14.93;;
64052;SDS011;50299;49.524;8.536;2022-10-13T15:11:21;23.23;;;15.07;;
64052;SDS011;50299;49.524;8.536;2022-10-13T15:13:48;22.25;;;15.27;;
64052;SDS011;50299;49.524;8.536;2022-10-13T15:16:18;23.45;;;16.55;;
64052;SDS011;50299;49.524;8.536;2022-10-13T15:18:46;20.42;;;14.52;;
64052;SDS011;50299;49.524;8.536;2022-10-13T15:21:13;21.73;;;16.70;;
64052;SDS011;50299;49.524;8.536;2022-10-13T15:23:40;22.38;;;16.10;;
64052;SDS011;50299;49.524;8.536;2022-10-13T15:26:07;22.30;;;14.40;;
64052;SDS011;50299;49.524;8.536;2022-10-13T15:28:35;23.45;;;16.63;;
64052;SDS011;50299;49.524;8.536;2022-10-13T15:31:04;24.15;;;15.52;;
64052;SDS011;50299;49.524;8.536;2022-10-13T15:33:31;21.33;;;14.38;;
64052;SDS011;50299;49.524;8.536;2022-10-13T15:35:58;24.27;;;16.25;;
64052;SDS011;50299;49.524;8.536;2022-10-13T15:38:24;48.53;;;15.63;;
64052;SDS011;50299;49.524;8.536;2022-10-13T15:40:51;24.40;;;16.42;;
64052;SDS011;50299;49.524;8.536;2022-10-13T15:43:18;22.75;;;15.20;;
64052;SDS011;50299;49.524;8.536;2022-10-13T15:45:52;63.55;;;16.48;;
64052;SDS011;50299;49.524;8.536;2022-10-13T15:48:25;19.88;;;14.65;;